createdAt,value
2023-05-25T00:02:24.924Z,94084.75
2023-05-25T00:04:52.233Z,94090.88
2023-05-25T00:07:19.213Z,94094.53
2023-05-25T00:09:46.666Z,94094.44
2023-05-25T00:12:14.382Z,94086.69
2023-05-25T00:14:41.064Z,94082.78
2023-05-25T00:17:10.299Z,94091.69
2023-05-25T00:19:42.459Z,94094.97
2023-05-25T00:22:10.635Z,94097.50
2023-05-25T00:24:38.974Z,94091.00
2023-05-25T00:27:07.306Z,94089.06
2023-05-25T00:29:35.246Z,94098.38
2023-05-25T00:32:02.930Z,94095.38
2023-05-25T00:34:29.622Z,94103.16
2023-05-25T00:36:56.372Z,94104.19
2023-05-25T00:39:23.249Z,94104.47
2023-05-25T00:41:50.335Z,94098.22
2023-05-25T00:44:21.896Z,94105.81
2023-05-25T00:46:50.852Z,94103.53
2023-05-25T00:49:19.465Z,94101.25
2023-05-25T00:51:47.845Z,94103.81
2023-05-25T00:54:18.597Z,94109.75
2023-05-25T00:56:52.989Z,94108.91
2023-05-25T00:59:28.647Z,94109.91
2023-05-25T01:01:56.530Z,94108.88
2023-05-25T01:04:23.853Z,94108.94
2023-05-25T01:06:50.808Z,94108.00
2023-05-25T01:09:22.495Z,94111.50
2023-05-25T01:11:51.520Z,94120.38
2023-05-25T01:14:21.946Z,94120.31
2023-05-25T01:16:49.756Z,94126.88
2023-05-25T01:19:17.245Z,94126.09
2023-05-25T01:22:11.704Z,94118.75
2023-05-25T01:24:43.331Z,94107.84
2023-05-25T01:27:24.904Z,94108.22
2023-05-25T01:29:53.517Z,94100.50
2023-05-25T01:32:20.521Z,94097.41
2023-05-25T01:34:48.744Z,94100.13
2023-05-25T01:37:17.511Z,94092.38
2023-05-25T01:39:44.227Z,94091.25
2023-05-25T01:42:10.999Z,94084.00
2023-05-25T01:44:39.029Z,94088.91
2023-05-25T01:47:11.545Z,94087.00
2023-05-25T01:49:50.498Z,94082.16
2023-05-25T01:52:26.527Z,94080.44
2023-05-25T01:54:57.455Z,94088.44
2023-05-25T01:57:26.405Z,94080.06
2023-05-25T02:00:00.097Z,94085.41
2023-05-25T02:02:31.864Z,94076.97
2023-05-25T02:04:59.508Z,94079.25
2023-05-25T02:07:26.206Z,94091.59
2023-05-25T02:09:52.960Z,94088.53
2023-05-25T02:12:19.981Z,94096.94
2023-05-25T02:14:48.786Z,94090.47
2023-05-25T02:17:17.913Z,94102.03
2023-05-25T02:19:45.936Z,94107.41
2023-05-25T02:22:12.633Z,94104.72
2023-05-25T02:24:39.405Z,94103.56
2023-05-25T02:27:06.949Z,94111.69
2023-05-25T02:29:33.625Z,94116.31
2023-05-25T02:32:00.473Z,94125.19
2023-05-25T02:34:27.132Z,94120.94
2023-05-25T02:36:53.866Z,94125.19
2023-05-25T02:39:20.526Z,94120.94
2023-05-25T02:41:47.205Z,94129.41
2023-05-25T02:44:13.844Z,94126.69
2023-05-25T02:46:40.629Z,94127.41
2023-05-25T02:49:07.422Z,94132.41
2023-05-25T02:51:34.133Z,94132.53
2023-05-25T02:54:00.851Z,94140.22
2023-05-25T02:56:27.730Z,94140.59
2023-05-25T02:58:54.604Z,94151.00
2023-05-25T03:01:21.436Z,94150.25
2023-05-25T03:03:52.500Z,94144.47
2023-05-25T03:06:21.546Z,94143.28
2023-05-25T03:08:48.432Z,94147.91
2023-05-25T03:11:15.663Z,94151.78
2023-05-25T03:13:42.350Z,94148.72
2023-05-25T03:16:09.166Z,94148.28
2023-05-25T03:18:36.278Z,94147.09
2023-05-25T03:21:02.960Z,94144.78
2023-05-25T03:23:29.659Z,94143.19
2023-05-25T03:25:56.671Z,94143.59
2023-05-25T03:28:23.324Z,94150.25
2023-05-25T03:30:50.098Z,94154.09
2023-05-25T03:33:16.790Z,94159.50
2023-05-25T03:35:43.734Z,94163.34
2023-05-25T03:38:10.569Z,94161.06
2023-05-25T03:40:37.250Z,94161.78
2023-05-25T03:43:03.927Z,94153.22
2023-05-25T03:45:30.783Z,94150.91
2023-05-25T03:47:57.464Z,94149.34
2023-05-25T03:50:24.211Z,94152.75
2023-05-25T03:52:50.845Z,94159.47
2023-05-25T03:55:17.721Z,94157.19
2023-05-25T03:57:44.408Z,94171.06
2023-05-25T04:00:11.854Z,94171.84
2023-05-25T04:02:38.540Z,94166.44
2023-05-25T04:05:05.755Z,94172.63
2023-05-25T04:07:32.545Z,94172.59
2023-05-25T04:09:59.837Z,94168.03
2023-05-25T04:12:27.630Z,94164.81
2023-05-25T04:14:54.294Z,94175.94
2023-05-25T04:17:24.903Z,94179.50
2023-05-25T04:19:52.369Z,94184.91
2023-05-25T04:22:19.226Z,94179.91
2023-05-25T04:24:46.508Z,94175.97
2023-05-25T04:27:14.442Z,94186.84
2023-05-25T04:29:44.198Z,94189.19
2023-05-25T04:32:10.999Z,94192.19
2023-05-25T04:34:37.809Z,94189.88
2023-05-25T04:37:05.797Z,94194.78
2023-05-25T04:39:32.944Z,94197.19
2023-05-25T04:42:02.125Z,94198.69
2023-05-25T04:44:29.882Z,94200.25
2023-05-25T04:46:56.833Z,94201.72
2023-05-25T04:49:23.514Z,94206.56
2023-05-25T04:51:50.348Z,94199.25
2023-05-25T04:54:17.146Z,94201.19
2023-05-25T04:56:44.191Z,94200.81
2023-05-25T04:59:11.246Z,94194.50
2023-05-25T05:01:41.349Z,94198.94
2023-05-25T05:04:08.571Z,94182.00
2023-05-25T05:06:36.581Z,94195.78
2023-05-25T05:09:03.705Z,94190.22
2023-05-25T05:11:30.517Z,94183.66
2023-05-25T05:13:57.185Z,94183.50
2023-05-25T05:16:23.952Z,94184.84
2023-05-25T05:18:50.711Z,94182.50
2023-05-25T05:21:17.363Z,94175.19
2023-05-25T05:23:44.102Z,94190.03
2023-05-25T05:26:11.837Z,94188.28
2023-05-25T05:28:38.558Z,94189.72
2023-05-25T05:31:05.493Z,94189.59
2023-05-25T05:33:32.317Z,94189.75
2023-05-25T05:35:59.597Z,94198.72
2023-05-25T05:38:26.831Z,94200.94
2023-05-25T05:40:53.626Z,94193.28
2023-05-25T05:43:20.425Z,94198.84
2023-05-25T05:45:47.265Z,94205.06
2023-05-25T05:48:14.100Z,94207.75
2023-05-25T05:50:42.262Z,94201.31
2023-05-25T05:53:10.049Z,94204.63
2023-05-25T05:55:36.898Z,94212.25
2023-05-25T05:58:03.725Z,94217.94
2023-05-25T06:00:30.556Z,94221.44
2023-05-25T06:02:57.427Z,94219.97
2023-05-25T06:05:24.278Z,94220.25
2023-05-25T06:07:51.055Z,94220.22
2023-05-25T06:10:17.811Z,94226.44
2023-05-25T06:12:44.573Z,94224.19
2023-05-25T06:15:11.725Z,94216.72
2023-05-25T06:17:38.401Z,94212.03
2023-05-25T06:20:06.671Z,94215.63
2023-05-25T06:22:33.591Z,94217.75
2023-05-25T06:25:04.700Z,94213.38
2023-05-25T06:27:31.358Z,94220.31
2023-05-25T06:29:58.064Z,94215.50
2023-05-25T06:32:24.725Z,94216.63
2023-05-25T06:34:51.373Z,94226.16
2023-05-25T06:37:18.122Z,94223.28
2023-05-25T06:39:44.898Z,94219.84
2023-05-25T06:42:11.837Z,94218.88
2023-05-25T06:44:38.760Z,94225.91
2023-05-25T06:47:05.699Z,94230.94
2023-05-25T06:49:32.862Z,94230.34
2023-05-25T06:51:59.713Z,94230.63
2023-05-25T06:54:27.125Z,94238.78
2023-05-25T06:56:53.953Z,94229.75
2023-05-25T06:59:20.713Z,94231.97
2023-05-25T07:01:47.682Z,94232.28
2023-05-25T07:04:14.499Z,94230.84
2023-05-25T07:06:41.186Z,94234.25
2023-05-25T07:09:07.921Z,94233.25
2023-05-25T07:11:34.653Z,94233.09
2023-05-25T07:14:01.677Z,94230.84
2023-05-25T07:16:28.508Z,94231.50
2023-05-25T07:18:55.231Z,94233.38
2023-05-25T07:21:21.940Z,94230.94
2023-05-25T07:23:48.718Z,94225.44
2023-05-25T07:26:15.778Z,94235.03
2023-05-25T07:28:42.461Z,94239.09
2023-05-25T07:31:11.157Z,94244.00
2023-05-25T07:33:37.788Z,94245.59
2023-05-25T07:36:04.772Z,94244.31
2023-05-25T07:38:31.486Z,94244.59
2023-05-25T07:40:58.140Z,94244.09
2023-05-25T07:43:24.976Z,94253.72
2023-05-25T07:45:51.724Z,94245.09
2023-05-25T07:48:18.456Z,94246.75
2023-05-25T07:50:45.186Z,94243.28
2023-05-25T07:53:11.825Z,94240.41
2023-05-25T07:55:38.572Z,94243.81
2023-05-25T07:58:07.479Z,94238.03
2023-05-25T08:00:34.688Z,94243.22
2023-05-25T08:03:05.060Z,94245.66
2023-05-25T08:05:31.880Z,94247.75
2023-05-25T08:07:58.643Z,94241.91
2023-05-25T08:10:34.934Z,94244.38
2023-05-25T08:13:01.652Z,94242.06
2023-05-25T08:15:28.635Z,94249.47
2023-05-25T08:17:56.858Z,94259.19
2023-05-25T08:20:24.974Z,94262.47
2023-05-25T08:22:53.723Z,94271.91
2023-05-25T08:25:20.849Z,94286.91
2023-05-25T08:27:47.616Z,94292.47
2023-05-25T08:30:17.496Z,94296.88
2023-05-25T08:32:44.287Z,94308.78
2023-05-25T08:35:11.079Z,94314.81
2023-05-25T08:37:38.014Z,94314.94
2023-05-25T08:40:08.050Z,94323.16
2023-05-25T08:42:34.892Z,94326.28
2023-05-25T08:45:02.972Z,94315.13
2023-05-25T08:47:33.829Z,94319.31
2023-05-25T08:50:01.858Z,94319.72
2023-05-25T08:52:33.263Z,94312.09
2023-05-25T08:55:04.139Z,94315.72
2023-05-25T08:57:40.843Z,94319.25
2023-05-25T09:00:11.674Z,94318.69
2023-05-25T09:03:02.648Z,94319.78
2023-05-25T09:05:29.543Z,94325.28
2023-05-25T09:07:56.911Z,94328.69
2023-05-25T09:10:26.494Z,94338.56
2023-05-25T09:12:55.066Z,94335.19
2023-05-25T09:15:21.932Z,94342.34
2023-05-25T09:17:48.877Z,94339.03
2023-05-25T09:20:16.699Z,94331.63
2023-05-25T09:22:44.423Z,94336.03
2023-05-25T09:25:12.070Z,94327.41
2023-05-25T09:27:38.903Z,94331.41
2023-05-25T09:30:06.750Z,94334.59
2023-05-25T09:32:33.657Z,94334.53
2023-05-25T09:35:14.724Z,94327.84
2023-05-25T09:37:42.944Z,94326.66
2023-05-25T09:40:14.780Z,94319.97
2023-05-25T09:42:42.758Z,94318.50
2023-05-25T09:45:09.675Z,94313.72
2023-05-25T09:47:36.939Z,94309.13
2023-05-25T09:50:04.092Z,94306.25
2023-05-25T09:52:31.578Z,94307.06
2023-05-25T09:54:58.181Z,94306.31
2023-05-25T09:57:27.028Z,94300.69
2023-05-25T09:59:54.126Z,94297.59
2023-05-25T10:02:21.209Z,94291.41
2023-05-25T10:04:48.708Z,94292.78
2023-05-25T10:07:16.237Z,94284.78
2023-05-25T10:09:46.169Z,94286.41
2023-05-25T10:12:18.202Z,94282.41
2023-05-25T10:14:46.935Z,94288.09
2023-05-25T10:17:17.752Z,94282.22
2023-05-25T10:19:56.587Z,94279.34
2023-05-25T10:22:36.501Z,94282.88
2023-05-25T10:25:06.304Z,94275.94
2023-05-25T10:27:41.224Z,94276.31
2023-05-25T10:30:09.724Z,94271.38
2023-05-25T10:32:37.543Z,94269.28
2023-05-25T10:35:06.300Z,94261.75
2023-05-25T10:37:34.359Z,94259.94
2023-05-25T10:40:02.170Z,94256.94
2023-05-25T10:42:29.893Z,94255.06
2023-05-25T10:44:57.822Z,94252.16
2023-05-25T10:47:25.053Z,94244.31
2023-05-25T10:49:56.268Z,94238.69
2023-05-25T10:52:27.872Z,94244.66
2023-05-25T10:55:04.250Z,94239.50
2023-05-25T10:57:31.653Z,94226.97
2023-05-25T11:00:06.631Z,94223.22
2023-05-25T11:02:51.645Z,94225.41
2023-05-25T11:05:27.828Z,94215.53
2023-05-25T11:07:56.294Z,94210.53
2023-05-25T11:10:41.976Z,94208.81
2023-05-25T11:13:40.403Z,94214.16
2023-05-25T11:16:12.471Z,94222.56
2023-05-25T11:18:41.674Z,94216.81
2023-05-25T11:21:21.457Z,94218.53
2023-05-25T11:24:06.896Z,94215.81
2023-05-25T11:26:34.732Z,94217.31
2023-05-25T11:29:12.157Z,94224.38
2023-05-25T11:31:43.379Z,94215.31
2023-05-25T11:34:12.092Z,94224.63
2023-05-25T11:36:39.482Z,94222.22
2023-05-25T11:39:16.995Z,94222.50
2023-05-25T11:42:04.389Z,94221.44
2023-05-25T11:44:33.919Z,94223.28
2023-05-25T11:47:08.333Z,94225.78
2023-05-25T11:49:38.780Z,94219.69
2023-05-25T11:52:07.204Z,94228.47
2023-05-25T11:54:34.973Z,94229.94
2023-05-25T11:57:03.104Z,94226.53
2023-05-25T11:59:32.488Z,94222.63
2023-05-25T12:02:04.647Z,94225.81
2023-05-25T12:04:34.874Z,94217.19
2023-05-25T12:07:03.727Z,94220.88
2023-05-25T12:09:31.029Z,94215.09
2023-05-25T12:11:58.213Z,94209.59
2023-05-25T12:14:25.558Z,94218.72
2023-05-25T12:16:52.931Z,94207.50
2023-05-25T12:19:20.191Z,94213.38
2023-05-25T12:21:47.982Z,94203.13
2023-05-25T12:24:14.844Z,94191.25
2023-05-25T12:26:57.535Z,94194.41
2023-05-25T12:29:26.125Z,94177.13
2023-05-25T12:31:53.132Z,94178.88
2023-05-25T12:34:21.224Z,94181.13
2023-05-25T12:36:52.544Z,94176.88
2023-05-25T12:39:34.624Z,94174.59
2023-05-25T12:42:02.968Z,94170.25
2023-05-25T12:44:31.677Z,94172.94
2023-05-25T12:47:28.124Z,94171.16
2023-05-25T12:50:11.737Z,94161.03
2023-05-25T12:52:41.301Z,94150.63
2023-05-25T12:55:21.592Z,94142.88
2023-05-25T12:57:52.747Z,94132.88
2023-05-25T13:00:22.126Z,94145.38
2023-05-25T13:02:50.519Z,94142.09
2023-05-25T13:05:21.929Z,94142.88
2023-05-25T13:07:49.062Z,94134.03
2023-05-25T13:10:19.183Z,94125.28
2023-05-25T13:12:47.674Z,94119.56
2023-05-25T13:15:21.068Z,94110.03
2023-05-25T13:17:49.078Z,94112.00
2023-05-25T13:20:16.358Z,94114.56
2023-05-25T13:22:44.970Z,94114.53
2023-05-25T13:25:13.138Z,94111.53
2023-05-25T13:27:47.214Z,94113.66
2023-05-25T13:30:14.634Z,94115.44
2023-05-25T13:32:43.497Z,94105.88
2023-05-25T13:35:19.515Z,94111.56
2023-05-25T13:37:46.546Z,94111.31
2023-05-25T13:40:13.756Z,94116.94
2023-05-25T13:42:40.847Z,94105.31
2023-05-25T13:45:08.050Z,94114.34
2023-05-25T13:47:35.005Z,94110.66
2023-05-25T13:50:02.699Z,94115.56
2023-05-25T13:52:29.821Z,94120.56
2023-05-25T13:54:56.606Z,94117.19
2023-05-25T13:57:23.226Z,94122.34
2023-05-25T13:59:49.833Z,94120.38
2023-05-25T14:02:16.701Z,94120.00
2023-05-25T14:04:43.353Z,94120.88
2023-05-25T14:07:10.162Z,94115.47
2023-05-25T14:09:36.990Z,94112.97
2023-05-25T14:12:04.037Z,94112.88
2023-05-25T14:14:32.908Z,94114.81
2023-05-25T14:17:01.303Z,94119.41
2023-05-25T14:19:28.798Z,94113.50
2023-05-25T14:22:11.766Z,94108.59
2023-05-25T14:24:39.775Z,94110.06
2023-05-25T14:27:07.445Z,94111.25
2023-05-25T14:29:34.503Z,94096.53
2023-05-25T14:32:02.134Z,94096.16
2023-05-25T14:34:29.674Z,94092.28
2023-05-25T14:36:56.405Z,94095.31
2023-05-25T14:39:23.223Z,94087.38
2023-05-25T14:41:49.967Z,94086.41
2023-05-25T14:44:16.712Z,94092.72
2023-05-25T14:46:43.465Z,94089.56
2023-05-25T14:49:10.532Z,94087.94
2023-05-25T14:51:38.094Z,94090.91
2023-05-25T14:54:07.300Z,94078.50
2023-05-25T14:56:34.418Z,94076.75
2023-05-25T14:59:01.180Z,94082.88
2023-05-25T15:01:29.482Z,94083.97
2023-05-25T15:03:56.736Z,94076.00
2023-05-25T15:06:23.576Z,94074.03
2023-05-25T15:08:50.917Z,94069.75
2023-05-25T15:11:18.741Z,94061.31
2023-05-25T15:13:45.687Z,94065.91
2023-05-25T15:16:13.840Z,94059.56
2023-05-25T15:18:40.624Z,94061.47
2023-05-25T15:21:07.290Z,94063.81
2023-05-25T15:23:34.043Z,94064.72
2023-05-25T15:26:04.330Z,94063.59
2023-05-25T15:28:31.421Z,94069.50
2023-05-25T15:30:59.949Z,94063.09
2023-05-25T15:33:40.012Z,94060.91
2023-05-25T15:36:15.230Z,94058.72
2023-05-25T15:38:43.450Z,94067.75
2023-05-25T15:41:11.552Z,94067.38
2023-05-25T15:43:38.280Z,94074.63
2023-05-25T15:46:05.008Z,94062.06
2023-05-25T15:48:31.687Z,94069.81
2023-05-25T15:50:58.331Z,94069.16
2023-05-25T15:53:25.058Z,94067.53
2023-05-25T15:55:51.893Z,94070.94
2023-05-25T15:58:18.629Z,94067.06
2023-05-25T16:00:45.425Z,94059.00
2023-05-25T16:03:12.344Z,94060.06
2023-05-25T16:05:39.036Z,94060.66
2023-05-25T16:08:05.701Z,94075.88
2023-05-25T16:10:32.430Z,94073.28
2023-05-25T16:12:59.081Z,94083.25
2023-05-25T16:15:25.996Z,94089.06
2023-05-25T16:17:52.756Z,94089.44
2023-05-25T16:20:19.460Z,94097.94
2023-05-25T16:22:46.339Z,94105.88
2023-05-25T16:25:13.027Z,94108.75
2023-05-25T16:27:39.768Z,94125.81
2023-05-25T16:30:07.029Z,94123.94
2023-05-25T16:32:33.698Z,94127.53
2023-05-25T16:35:00.485Z,94137.63
2023-05-25T16:37:27.606Z,94143.78
2023-05-25T16:39:54.224Z,94145.53
2023-05-25T16:42:21.186Z,94154.09
2023-05-25T16:44:48.010Z,94151.97
2023-05-25T16:47:14.797Z,94151.13
2023-05-25T16:49:41.492Z,94145.28
2023-05-25T16:52:09.800Z,94155.34
2023-05-25T16:54:36.457Z,94158.00
2023-05-25T16:57:03.268Z,94164.97
2023-05-25T16:59:29.996Z,94173.34
2023-05-25T17:01:56.765Z,94187.25
2023-05-25T17:04:23.468Z,94189.81
2023-05-25T17:06:50.118Z,94192.25
2023-05-25T17:09:16.938Z,94201.38
2023-05-25T17:11:43.604Z,94199.69
2023-05-25T17:14:10.550Z,94205.63
2023-05-25T17:16:37.347Z,94204.19
2023-05-25T17:19:04.004Z,94190.63
2023-05-25T17:21:30.929Z,94193.78
2023-05-25T17:23:57.711Z,94178.69
2023-05-25T17:26:24.343Z,94179.97
2023-05-25T17:28:51.076Z,94184.00
2023-05-25T17:31:17.782Z,94180.78
2023-05-25T17:33:44.610Z,94170.31
2023-05-25T17:36:11.232Z,94172.03
2023-05-25T17:38:38.184Z,94161.88
2023-05-25T17:41:04.916Z,94166.59
2023-05-25T17:43:31.547Z,94182.66
2023-05-25T17:45:59.225Z,94171.66
2023-05-25T17:48:26.019Z,94172.16
2023-05-25T17:50:52.744Z,94156.13
2023-05-25T17:53:19.372Z,94163.44
2023-05-25T17:55:46.207Z,94160.03
2023-05-25T17:58:13.072Z,94160.91
2023-05-25T18:00:39.808Z,94162.56
2023-05-25T18:03:06.681Z,94162.38
2023-05-25T18:05:33.384Z,94165.97
2023-05-25T18:08:00.180Z,94178.50
2023-05-25T18:10:27.075Z,94186.66
2023-05-25T18:12:54.292Z,94198.25
2023-05-25T18:15:21.856Z,94200.38
2023-05-25T18:17:48.653Z,94212.25
2023-05-25T18:20:15.500Z,94211.00
2023-05-25T18:22:42.332Z,94216.38
2023-05-25T18:25:09.416Z,94215.00
2023-05-25T18:27:41.943Z,94222.94
2023-05-25T18:30:09.163Z,94230.41
2023-05-25T18:32:35.956Z,94228.75
2023-05-25T18:35:02.718Z,94225.47
2023-05-25T18:37:31.271Z,94233.22
2023-05-25T18:39:57.950Z,94241.97
2023-05-25T18:42:24.611Z,94232.69
2023-05-25T18:44:51.339Z,94247.84
2023-05-25T18:47:18.599Z,94247.22
2023-05-25T18:49:45.481Z,94247.44
2023-05-25T18:52:12.219Z,94262.34
2023-05-25T18:54:39.659Z,94267.53
2023-05-25T18:57:07.251Z,94275.41
2023-05-25T18:59:33.970Z,94276.91
2023-05-25T19:02:01.532Z,94290.97
2023-05-25T19:04:28.354Z,94300.69
2023-05-25T19:06:55.085Z,94309.09
2023-05-25T19:09:21.734Z,94326.56
2023-05-25T19:11:48.356Z,94335.72
2023-05-25T19:14:15.063Z,94333.75
2023-05-25T19:16:41.869Z,94331.81
2023-05-25T19:19:08.606Z,94338.16
2023-05-25T19:21:36.541Z,94350.13
2023-05-25T19:24:03.192Z,94343.66
2023-05-25T19:26:29.868Z,94353.16
2023-05-25T19:28:57.417Z,94366.81
2023-05-25T19:31:24.130Z,94379.22
2023-05-25T19:33:50.965Z,94374.94
2023-05-25T19:36:17.658Z,94374.97
2023-05-25T19:38:44.463Z,94382.19
2023-05-25T19:41:11.228Z,94387.31
2023-05-25T19:43:37.988Z,94378.28
2023-05-25T19:46:04.778Z,94378.28
2023-05-25T19:48:31.896Z,94383.69
2023-05-25T19:50:58.648Z,94381.75
2023-05-25T19:53:25.637Z,94384.50
2023-05-25T19:55:52.283Z,94384.06
2023-05-25T19:58:18.959Z,94383.47
2023-05-25T20:00:45.933Z,94385.78
2023-05-25T20:03:12.750Z,94396.94
2023-05-25T20:05:39.844Z,94382.69
2023-05-25T20:08:06.486Z,94385.03
2023-05-25T20:10:38.892Z,94374.91
2023-05-25T20:13:07.497Z,94373.03
2023-05-25T20:15:34.681Z,94361.81
2023-05-25T20:18:04.567Z,94350.16
2023-05-25T20:20:31.436Z,94349.47
2023-05-25T20:22:58.232Z,94335.19
2023-05-25T20:25:24.874Z,94323.59
2023-05-25T20:27:51.551Z,94303.09
2023-05-25T20:30:18.251Z,94294.22
2023-05-25T20:32:44.951Z,94287.66
2023-05-25T20:35:13.422Z,94288.41
2023-05-25T20:37:40.121Z,94271.34
2023-05-25T20:40:07.246Z,94281.06
2023-05-25T20:42:33.954Z,94273.72
2023-05-25T20:45:00.671Z,94267.97
2023-05-25T20:47:27.408Z,94278.41
2023-05-25T20:49:54.054Z,94281.50
2023-05-25T20:52:21.461Z,94271.06
2023-05-25T20:54:48.328Z,94259.44
2023-05-25T20:57:15.283Z,94251.38
2023-05-25T20:59:41.950Z,94259.06
2023-05-25T21:02:08.741Z,94255.59
2023-05-25T21:04:36.285Z,94244.72
2023-05-25T21:07:03.042Z,94245.94
2023-05-25T21:09:29.677Z,94250.94
2023-05-25T21:11:56.388Z,94248.63
2023-05-25T21:14:23.119Z,94242.03
2023-05-25T21:16:50.168Z,94246.22
2023-05-25T21:19:17.384Z,94240.28
2023-05-25T21:21:44.203Z,94247.22
2023-05-25T21:24:10.991Z,94230.06
2023-05-25T21:26:37.707Z,94224.66
2023-05-25T21:29:04.398Z,94219.03
2023-05-25T21:31:31.122Z,94218.00
2023-05-25T21:33:59.359Z,94222.84
2023-05-25T21:36:26.855Z,94230.88
2023-05-25T21:38:53.544Z,94221.13
2023-05-25T21:41:20.344Z,94211.81
2023-05-25T21:43:47.111Z,94232.00
2023-05-25T21:46:13.871Z,94234.72
2023-05-25T21:48:40.593Z,94235.88
2023-05-25T21:51:07.264Z,94235.84
2023-05-25T21:53:33.921Z,94232.69
2023-05-25T21:56:00.583Z,94221.78
2023-05-25T21:58:27.237Z,94219.03
2023-05-25T22:00:53.930Z,94214.72
2023-05-25T22:03:20.770Z,94219.63
2023-05-25T22:05:47.446Z,94222.34
2023-05-25T22:08:14.117Z,94216.59
2023-05-25T22:10:41.211Z,94208.03
2023-05-25T22:13:07.936Z,94203.34
2023-05-25T22:15:34.896Z,94197.53
2023-05-25T22:18:02.636Z,94207.38
2023-05-25T22:20:29.336Z,94202.31
2023-05-25T22:22:55.980Z,94204.16
2023-05-25T22:25:22.946Z,94198.06
2023-05-25T22:27:49.569Z,94197.66
2023-05-25T22:30:16.369Z,94200.00
2023-05-25T22:32:43.070Z,94201.53
2023-05-25T22:35:09.790Z,94206.03
2023-05-25T22:37:36.460Z,94206.41
2023-05-25T22:40:05.078Z,94196.50
2023-05-25T22:42:31.861Z,94198.06
2023-05-25T22:44:58.957Z,94203.78
2023-05-25T22:47:25.705Z,94200.34
2023-05-25T22:49:52.453Z,94213.41
2023-05-25T22:52:19.248Z,94213.38
2023-05-25T22:54:45.919Z,94201.75
2023-05-25T22:57:12.585Z,94197.75
2023-05-25T22:59:39.233Z,94206.16
2023-05-25T23:02:06.147Z,94213.34
2023-05-25T23:04:35.182Z,94200.91
2023-05-25T23:07:02.013Z,94205.84
2023-05-25T23:09:28.704Z,94216.00
2023-05-25T23:11:55.396Z,94212.16
2023-05-25T23:14:22.135Z,94216.28
2023-05-25T23:16:49.064Z,94207.22
2023-05-25T23:19:16.922Z,94206.91
2023-05-25T23:21:44.194Z,94209.59
2023-05-25T23:24:10.989Z,94205.66
2023-05-25T23:26:37.635Z,94217.06
2023-05-25T23:29:04.296Z,94211.50
2023-05-25T23:31:31.442Z,94207.31
2023-05-25T23:33:58.161Z,94209.66
2023-05-25T23:36:26.271Z,94214.28
2023-05-25T23:38:53.283Z,94200.41
2023-05-25T23:41:21.209Z,94207.75
2023-05-25T23:43:47.930Z,94207.75
2023-05-25T23:46:16.366Z,94201.97
2023-05-25T23:48:44.328Z,94201.56
2023-05-25T23:51:11.182Z,94197.31
2023-05-25T23:53:39.194Z,94194.66
2023-05-25T23:56:06.081Z,94198.13
2023-05-25T23:58:32.810Z,94201.19
